createdAt,value
2023-01-20T00:02:18.692Z,87.48
2023-01-20T00:04:50.655Z,87.79
2023-01-20T00:07:20.982Z,88.03
2023-01-20T00:09:51.369Z,88.11
2023-01-20T00:12:21.776Z,88.18
2023-01-20T00:14:52.296Z,88.08
2023-01-20T00:17:22.674Z,88.05
2023-01-20T00:19:53.396Z,87.91
2023-01-20T00:22:24.417Z,87.71
2023-01-20T00:24:54.793Z,87.73
2023-01-20T00:27:25.560Z,87.64
2023-01-20T00:29:55.981Z,87.76
2023-01-20T00:32:26.389Z,87.65
2023-01-20T00:34:56.750Z,87.63
2023-01-20T00:37:27.421Z,87.62
2023-01-20T00:39:57.735Z,87.63
2023-01-20T00:42:28.243Z,87.49
2023-01-20T00:44:58.583Z,87.54
2023-01-20T00:47:29.006Z,87.60
2023-01-20T00:49:59.680Z,87.63
2023-01-20T00:52:30.074Z,87.81
2023-01-20T00:55:00.619Z,88.05
2023-01-20T00:57:31.231Z,88.17
2023-01-20T01:00:01.777Z,88.32
2023-01-20T01:02:32.388Z,88.32
2023-01-20T01:05:03.029Z,88.41
2023-01-20T01:07:33.605Z,88.18
2023-01-20T01:10:04.683Z,87.90
2023-01-20T01:12:35.667Z,87.83
2023-01-20T01:15:07.781Z,88.13
2023-01-20T01:17:38.199Z,88.12
2023-01-20T01:20:10.980Z,88.25
2023-01-20T01:22:41.523Z,88.41
2023-01-20T01:25:12.797Z,88.76
2023-01-20T01:27:43.934Z,89.15
2023-01-20T01:30:15.599Z,89.37
2023-01-20T01:32:46.123Z,89.43
2023-01-20T01:35:17.385Z,89.21
2023-01-20T01:37:49.372Z,88.88
2023-01-20T01:40:20.514Z,88.90
2023-01-20T01:42:50.942Z,88.78
2023-01-20T01:45:24.880Z,88.97
2023-01-20T01:48:01.239Z,89.07
2023-01-20T01:50:35.888Z,89.19
2023-01-20T01:53:06.725Z,89.08
2023-01-20T01:55:40.008Z,88.91
2023-01-20T01:58:12.075Z,88.83
2023-01-20T02:00:42.699Z,88.92
2023-01-20T02:03:13.399Z,88.96
2023-01-20T02:05:44.747Z,89.13
2023-01-20T02:08:15.370Z,89.37
2023-01-20T02:10:45.808Z,89.42
2023-01-20T02:13:16.585Z,89.46
2023-01-20T02:15:53.538Z,89.47
2023-01-20T02:18:36.363Z,89.43
2023-01-20T02:21:41.059Z,89.43
2023-01-20T02:24:23.568Z,89.38
2023-01-20T02:27:10.909Z,89.30
2023-01-20T02:30:07.554Z,89.26
2023-01-20T02:32:51.065Z,89.36
2023-01-20T02:35:25.357Z,89.56
2023-01-20T02:38:01.775Z,89.33
2023-01-20T02:40:36.115Z,89.30
2023-01-20T02:43:11.695Z,89.38
2023-01-20T02:45:48.978Z,89.47
2023-01-20T02:48:25.849Z,89.68
2023-01-20T02:50:59.794Z,89.84
2023-01-20T02:53:34.066Z,89.84
2023-01-20T02:56:05.086Z,89.94
2023-01-20T02:58:38.760Z,90.03
2023-01-20T03:01:12.561Z,90.26
2023-01-20T03:03:45.983Z,90.42
2023-01-20T03:06:20.352Z,90.54
2023-01-20T03:08:51.928Z,90.56
2023-01-20T03:11:22.528Z,90.34
2023-01-20T03:13:57.243Z,90.02
2023-01-20T03:16:29.110Z,89.67
2023-01-20T03:18:59.638Z,89.60
2023-01-20T03:21:30.145Z,89.37
2023-01-20T03:24:02.600Z,89.37
2023-01-20T03:26:33.124Z,89.32
2023-01-20T03:29:05.604Z,89.43
2023-01-20T03:31:39.434Z,89.58
2023-01-20T03:34:12.601Z,89.67
2023-01-20T03:36:41.549Z,89.67
2023-01-20T03:39:11.971Z,89.74
2023-01-20T03:41:52.075Z,89.52
2023-01-20T03:44:25.104Z,89.55
2023-01-20T03:47:01.634Z,89.28
2023-01-20T03:49:37.032Z,89.23
2023-01-20T03:52:10.336Z,89.12
2023-01-20T03:54:45.287Z,88.80
2023-01-20T03:57:19.545Z,88.88
2023-01-20T03:59:51.740Z,88.89
2023-01-20T04:02:22.530Z,89.14
2023-01-20T04:04:53.623Z,89.41
2023-01-20T04:07:28.031Z,89.62
2023-01-20T04:09:59.973Z,89.79
2023-01-20T04:12:30.418Z,89.79
2023-01-20T04:15:01.452Z,89.60
2023-01-20T04:17:32.373Z,89.51
2023-01-20T04:20:07.583Z,89.55
2023-01-20T04:22:43.094Z,89.33
2023-01-20T04:25:18.673Z,89.04
2023-01-20T04:27:49.205Z,88.74
2023-01-20T04:30:22.141Z,88.75
2023-01-20T04:32:51.005Z,88.87
2023-01-20T04:35:22.248Z,88.47
2023-01-20T04:37:52.716Z,88.57
2023-01-20T04:40:23.719Z,88.68
2023-01-20T04:42:54.116Z,88.91
2023-01-20T04:45:24.483Z,88.91
2023-01-20T04:47:59.714Z,88.89
2023-01-20T04:50:30.166Z,88.92
2023-01-20T04:53:00.928Z,89.15
2023-01-20T04:55:32.671Z,89.26
2023-01-20T04:58:03.317Z,89.07
2023-01-20T05:00:33.915Z,89.04
2023-01-20T05:03:06.298Z,88.85
2023-01-20T05:05:36.796Z,88.61
2023-01-20T05:08:07.567Z,88.64
2023-01-20T05:10:37.925Z,88.55
2023-01-20T05:13:08.373Z,88.74
2023-01-20T05:15:38.743Z,89.01
2023-01-20T05:18:09.159Z,88.80
2023-01-20T05:20:39.510Z,88.82
2023-01-20T05:23:09.837Z,88.85
2023-01-20T05:25:40.390Z,88.82
2023-01-20T05:28:10.856Z,88.78
2023-01-20T05:30:41.651Z,88.75
2023-01-20T05:33:12.122Z,88.84
2023-01-20T05:35:42.495Z,88.99
2023-01-20T05:38:13.331Z,89.07
2023-01-20T05:40:43.763Z,89.19
2023-01-20T05:43:14.064Z,89.02
2023-01-20T05:45:46.696Z,88.87
2023-01-20T05:48:17.180Z,88.85
2023-01-20T05:50:47.964Z,88.80
2023-01-20T05:53:18.541Z,88.87
2023-01-20T05:55:49.164Z,89.10
2023-01-20T05:58:19.697Z,89.16
2023-01-20T06:00:50.337Z,88.94
2023-01-20T06:03:20.811Z,88.39
2023-01-20T06:05:51.218Z,88.00
2023-01-20T06:08:21.635Z,87.70
2023-01-20T06:10:52.045Z,87.54
2023-01-20T06:13:22.352Z,87.41
2023-01-20T06:15:55.036Z,87.35
2023-01-20T06:18:25.695Z,87.40
2023-01-20T06:20:59.850Z,87.53
2023-01-20T06:23:30.416Z,87.50
2023-01-20T06:26:05.322Z,87.33
2023-01-20T06:28:35.866Z,87.40
2023-01-20T06:31:08.548Z,87.42
2023-01-20T06:33:39.873Z,87.45
2023-01-20T06:36:13.519Z,87.34
2023-01-20T06:38:48.298Z,87.21
2023-01-20T06:41:20.050Z,87.27
2023-01-20T06:43:51.934Z,87.42
2023-01-20T06:46:22.389Z,87.41
2023-01-20T06:48:58.571Z,87.38
2023-01-20T06:51:30.444Z,87.29
2023-01-20T06:54:00.792Z,87.29
2023-01-20T06:56:31.201Z,87.37
2023-01-20T06:59:01.638Z,87.25
2023-01-20T07:01:33.330Z,87.15
2023-01-20T07:04:03.913Z,87.17
2023-01-20T07:06:38.286Z,87.19
2023-01-20T07:09:10.214Z,87.19
2023-01-20T07:11:40.607Z,87.22
2023-01-20T07:14:11.448Z,87.27
2023-01-20T07:16:42.132Z,87.19
2023-01-20T07:19:13.098Z,87.23
2023-01-20T07:21:43.448Z,87.30
2023-01-20T07:24:14.080Z,87.37
2023-01-20T07:26:45.127Z,87.42
2023-01-20T07:29:17.762Z,87.40
2023-01-20T07:31:48.559Z,87.35
2023-01-20T07:34:19.142Z,87.42
2023-01-20T07:36:49.489Z,87.44
2023-01-20T07:39:20.440Z,87.36
2023-01-20T07:41:51.125Z,87.28
2023-01-20T07:44:21.770Z,87.28
2023-01-20T07:46:52.496Z,87.23
2023-01-20T07:49:22.875Z,87.09
2023-01-20T07:51:53.896Z,87.14
2023-01-20T07:54:24.574Z,87.15
2023-01-20T07:56:55.941Z,87.37
2023-01-20T07:59:29.176Z,87.29
2023-01-20T08:02:00.107Z,87.28
2023-01-20T08:04:30.714Z,87.19
2023-01-20T08:07:01.444Z,87.09
2023-01-20T08:09:31.912Z,87.04
2023-01-20T08:12:03.339Z,87.15
2023-01-20T08:14:34.418Z,87.21
2023-01-20T08:17:07.308Z,86.97
2023-01-20T08:19:38.141Z,86.70
2023-01-20T08:22:08.986Z,86.52
2023-01-20T08:24:39.302Z,86.33
2023-01-20T08:27:10.887Z,86.19
2023-01-20T08:29:42.506Z,85.97
2023-01-20T08:32:14.919Z,85.57
2023-01-20T08:34:46.568Z,85.49
2023-01-20T08:37:19.000Z,85.41
2023-01-20T08:39:51.241Z,85.26
2023-01-20T08:42:23.266Z,85.10
2023-01-20T08:44:56.976Z,85.10
2023-01-20T08:47:30.042Z,84.96
2023-01-20T08:50:03.478Z,84.57
2023-01-20T08:52:36.042Z,83.76
2023-01-20T08:55:08.740Z,83.56
2023-01-20T08:57:40.559Z,83.24
2023-01-20T09:00:14.998Z,82.70
2023-01-20T09:02:48.388Z,82.30
2023-01-20T09:05:22.990Z,81.82
2023-01-20T09:07:55.455Z,81.55
2023-01-20T09:10:28.001Z,80.98
2023-01-20T09:12:59.303Z,80.85
2023-01-20T09:15:31.142Z,80.03
2023-01-20T09:18:04.407Z,79.37
2023-01-20T09:20:38.102Z,78.08
2023-01-20T09:23:11.368Z,76.92
2023-01-20T09:32:56.480Z,74.91
2023-01-20T09:35:27.200Z,73.91
2023-01-20T09:38:15.041Z,72.55
2023-01-20T09:41:10.197Z,71.44
2023-01-20T09:43:56.906Z,70.45
2023-01-20T09:46:36.602Z,71.05
2023-01-20T09:49:39.117Z,71.34
2023-01-20T09:52:32.367Z,72.19
2023-01-20T09:55:06.236Z,72.88
2023-01-20T09:57:40.910Z,73.32
2023-01-20T10:00:17.722Z,74.40
2023-01-20T10:02:53.583Z,74.94
2023-01-20T10:05:27.093Z,75.37
2023-01-20T10:07:59.912Z,75.26
2023-01-20T10:10:33.181Z,75.36
2023-01-20T10:13:06.888Z,75.46
2023-01-20T10:15:38.753Z,75.06
2023-01-20T10:18:11.162Z,75.50
2023-01-20T10:20:45.552Z,76.17
2023-01-20T10:23:21.409Z,76.52
2023-01-20T10:25:55.151Z,76.18
2023-01-20T10:28:29.791Z,76.16
2023-01-20T10:31:03.171Z,75.80
2023-01-20T10:33:36.018Z,76.43
2023-01-20T10:36:08.806Z,76.67
2023-01-20T10:38:47.995Z,76.23
2023-01-20T10:41:20.383Z,76.60
2023-01-20T10:43:50.891Z,77.02
2023-01-20T10:46:36.747Z,77.51
2023-01-20T10:49:25.489Z,77.17
2023-01-20T10:53:48.052Z,77.04
2023-01-20T10:56:43.977Z,77.17
2023-01-20T10:59:19.003Z,77.42
2023-01-20T11:02:06.221Z,77.53
2023-01-20T11:04:40.935Z,77.58
2023-01-20T11:07:16.838Z,77.45
2023-01-20T11:09:49.178Z,77.63
2023-01-20T11:12:21.733Z,77.63
2023-01-20T11:14:52.463Z,77.72
2023-01-20T11:17:23.286Z,78.20
2023-01-20T11:19:56.799Z,78.03
2023-01-20T11:22:31.258Z,77.80
2023-01-20T11:25:04.040Z,77.45
2023-01-20T11:27:38.817Z,77.04
2023-01-20T11:30:20.420Z,76.96
2023-01-20T11:33:10.234Z,76.89
2023-01-20T11:35:41.224Z,76.48
2023-01-20T11:38:28.970Z,76.12
2023-01-20T11:40:59.955Z,75.84
2023-01-20T11:43:38.369Z,76.18
2023-01-20T11:46:21.523Z,76.33
2023-01-20T11:48:50.472Z,76.03
2023-01-20T11:51:25.858Z,76.02
2023-01-20T11:54:08.981Z,76.40
2023-01-20T11:56:43.146Z,76.66
2023-01-20T11:59:22.330Z,76.85
2023-01-20T12:01:57.040Z,77.03
2023-01-20T12:04:39.762Z,77.29
2023-01-20T12:07:12.926Z,77.72
2023-01-20T12:09:45.896Z,78.13
2023-01-20T12:12:16.506Z,78.48
2023-01-20T12:14:50.301Z,78.70
2023-01-20T12:17:26.570Z,78.95
2023-01-20T12:20:02.493Z,78.99
2023-01-20T12:22:36.801Z,79.04
2023-01-20T12:25:16.631Z,79.03
2023-01-20T12:27:51.187Z,79.48
2023-01-20T12:30:47.378Z,79.07
2023-01-20T12:33:26.551Z,79.12
2023-01-20T12:36:25.971Z,79.51
2023-01-20T12:39:09.184Z,79.51
2023-01-20T12:41:45.682Z,79.41
2023-01-20T12:44:20.672Z,79.32
2023-01-20T12:46:54.351Z,79.31
2023-01-20T12:49:48.687Z,79.15
2023-01-20T12:52:28.203Z,78.95
2023-01-20T12:55:10.356Z,78.57
2023-01-20T12:57:59.900Z,78.63
2023-01-20T13:00:43.576Z,78.83
2023-01-20T13:03:34.779Z,79.19
2023-01-20T13:06:18.108Z,79.13
2023-01-20T13:08:54.502Z,78.57
2023-01-20T13:11:31.810Z,78.90
2023-01-20T13:14:09.942Z,79.17
2023-01-20T13:16:45.997Z,79.02
2023-01-20T13:19:19.732Z,79.02
2023-01-20T13:22:03.081Z,78.98
2023-01-20T13:24:38.712Z,79.20
2023-01-20T13:27:09.141Z,78.92
2023-01-20T13:29:55.752Z,78.64
2023-01-20T13:32:35.750Z,78.43
2023-01-20T13:35:41.714Z,78.27
2023-01-20T13:38:27.980Z,78.39
2023-01-20T13:41:03.418Z,78.20
2023-01-20T13:43:53.270Z,78.36
2023-01-20T13:46:48.053Z,78.67
2023-01-20T13:49:27.032Z,78.91
2023-01-20T13:51:58.078Z,78.77
2023-01-20T13:54:44.845Z,78.65
2023-01-20T13:57:47.121Z,78.80
2023-01-20T14:00:20.445Z,79.03
2023-01-20T14:02:53.082Z,79.33
2023-01-20T14:05:34.867Z,79.23
2023-01-20T14:08:11.483Z,79.58
2023-01-20T14:10:41.920Z,79.95
2023-01-20T14:13:12.989Z,80.13
2023-01-20T14:15:49.735Z,79.97
2023-01-20T14:18:22.726Z,79.69
2023-01-20T14:21:06.598Z,79.89
2023-01-20T14:23:39.383Z,79.88
2023-01-20T14:26:12.686Z,80.01
2023-01-20T14:28:51.613Z,80.01
2023-01-20T14:31:25.769Z,79.95
2023-01-20T14:33:59.801Z,79.93
2023-01-20T14:36:33.202Z,80.04
2023-01-20T14:39:09.506Z,80.24
2023-01-20T14:41:51.470Z,80.35
2023-01-20T14:44:25.796Z,80.47
2023-01-20T14:47:02.365Z,80.38
2023-01-20T14:49:35.316Z,80.41
2023-01-20T14:52:06.878Z,80.31
2023-01-20T14:54:46.783Z,80.21
2023-01-20T14:57:26.160Z,80.25
2023-01-20T15:00:21.894Z,80.40
2023-01-20T15:03:09.888Z,80.58
2023-01-20T15:05:41.912Z,80.79
2023-01-20T15:08:53.408Z,80.97
2023-01-20T15:11:32.667Z,81.02
2023-01-20T15:14:11.369Z,81.19
2023-01-20T15:16:50.420Z,81.13
2023-01-20T15:19:31.882Z,81.24
2023-01-20T15:22:20.720Z,81.44
2023-01-20T15:24:53.566Z,81.50
2023-01-20T15:27:32.285Z,81.75
2023-01-20T15:30:15.934Z,81.90
2023-01-20T15:32:47.533Z,81.96
2023-01-20T15:35:21.132Z,82.07
2023-01-20T15:37:52.795Z,82.12
2023-01-20T15:40:24.702Z,82.10
2023-01-20T15:42:56.916Z,82.16
2023-01-20T15:45:27.444Z,82.30
2023-01-20T15:47:58.563Z,82.42
2023-01-20T15:50:31.267Z,82.48
2023-01-20T15:53:03.523Z,82.51
2023-01-20T15:55:34.170Z,82.61
2023-01-20T15:58:08.001Z,82.82
2023-01-20T16:00:38.625Z,82.97
2023-01-20T16:03:12.537Z,83.12
2023-01-20T16:05:43.465Z,83.22
2023-01-20T16:08:17.449Z,83.30
2023-01-20T16:10:50.537Z,83.50
2023-01-20T16:13:21.311Z,83.70
2023-01-20T16:15:54.378Z,83.85
2023-01-20T16:18:25.027Z,84.08
2023-01-20T16:20:55.899Z,84.19
2023-01-20T16:23:26.357Z,84.39
2023-01-20T16:25:57.044Z,84.46
2023-01-20T16:28:27.585Z,84.65
2023-01-20T16:30:58.479Z,84.75
2023-01-20T16:33:29.586Z,84.79
2023-01-20T16:36:00.475Z,84.92
2023-01-20T16:38:31.525Z,85.01
2023-01-20T16:41:05.917Z,85.15
2023-01-20T16:43:36.536Z,85.14
2023-01-20T16:46:07.725Z,85.37
2023-01-20T16:48:38.327Z,85.48
2023-01-20T16:51:09.246Z,85.61
2023-01-20T16:53:40.078Z,85.67
2023-01-20T16:56:15.557Z,85.82
2023-01-20T16:58:50.094Z,85.75
2023-01-20T17:01:23.505Z,85.78
2023-01-20T17:03:55.190Z,85.87
2023-01-20T17:06:28.716Z,85.86
2023-01-20T17:09:04.195Z,85.96
2023-01-20T17:11:40.378Z,86.17
2023-01-20T17:14:15.817Z,86.13
2023-01-20T17:16:46.779Z,86.20
2023-01-20T17:19:20.265Z,86.12
2023-01-20T17:21:51.393Z,86.24
2023-01-20T17:24:22.259Z,86.30
2023-01-20T17:26:53.486Z,86.43
2023-01-20T17:29:24.772Z,86.57
2023-01-20T17:31:55.341Z,86.72
2023-01-20T17:34:29.132Z,86.84
2023-01-20T17:37:00.770Z,86.93
2023-01-20T17:39:31.470Z,87.04
2023-01-20T17:42:01.998Z,87.22
2023-01-20T17:44:32.825Z,87.42
2023-01-20T17:47:03.941Z,87.48
2023-01-20T17:49:34.540Z,87.45
2023-01-20T17:52:05.815Z,87.58
2023-01-20T17:54:36.778Z,87.55
2023-01-20T17:57:07.567Z,87.65
2023-01-20T17:59:38.519Z,87.82
2023-01-20T18:02:10.240Z,87.88
2023-01-20T18:04:41.360Z,87.90
2023-01-20T18:07:12.393Z,87.99
2023-01-20T18:09:43.197Z,88.14
2023-01-20T18:12:14.914Z,88.25
2023-01-20T18:14:45.741Z,88.33
2023-01-20T18:17:35.286Z,88.38
2023-01-20T18:20:06.703Z,88.36
2023-01-20T18:22:37.423Z,88.37
2023-01-20T18:25:08.995Z,88.43
2023-01-20T18:27:41.896Z,88.54
2023-01-20T18:30:12.205Z,88.68
2023-01-20T18:32:42.637Z,88.63
2023-01-20T18:35:15.402Z,88.80
2023-01-20T18:37:45.971Z,88.85
2023-01-20T18:40:17.673Z,89.02
2023-01-20T18:42:48.708Z,89.10
2023-01-20T18:45:19.530Z,89.20
2023-01-20T18:47:50.803Z,89.20
2023-01-20T18:50:21.408Z,89.16
2023-01-20T18:52:52.108Z,89.15
2023-01-20T18:55:23.593Z,89.12
2023-01-20T18:57:54.087Z,89.21
2023-01-20T19:00:25.028Z,89.28
2023-01-20T19:02:55.507Z,89.25
2023-01-20T19:05:26.002Z,89.23
2023-01-20T19:07:56.484Z,89.27
2023-01-20T19:10:27.285Z,89.37
2023-01-20T19:12:57.743Z,89.45
2023-01-20T19:15:28.766Z,89.57
2023-01-20T19:17:59.482Z,89.56
2023-01-20T19:20:30.101Z,89.50
2023-01-20T19:23:00.846Z,89.50
2023-01-20T19:25:31.740Z,89.57
2023-01-20T19:28:02.136Z,89.56
2023-01-20T19:30:32.568Z,89.68
2023-01-20T19:39:01.363Z,89.74
2023-01-20T19:41:34.310Z,89.74
2023-01-20T19:44:04.544Z,89.71
2023-01-20T19:46:36.483Z,89.84
2023-01-20T19:49:07.135Z,89.86
2023-01-20T19:51:37.941Z,90.06
2023-01-20T19:54:08.814Z,90.03
2023-01-20T19:56:39.131Z,89.98
2023-01-20T19:59:11.376Z,89.91
2023-01-20T20:01:41.787Z,89.87
2023-01-20T20:04:13.932Z,89.82
2023-01-20T20:06:48.426Z,89.83
2023-01-20T20:09:23.141Z,89.78
2023-01-20T20:11:53.847Z,89.71
2023-01-20T20:14:27.201Z,89.73
2023-01-20T20:16:57.613Z,89.63
2023-01-20T20:19:28.628Z,89.49
2023-01-20T20:21:59.027Z,89.43
2023-01-20T20:24:29.513Z,89.46
2023-01-20T20:27:00.200Z,89.55
2023-01-20T20:29:31.246Z,89.53
2023-01-20T20:32:01.685Z,89.71
2023-01-20T20:34:33.627Z,89.59
2023-01-20T20:37:04.680Z,89.54
2023-01-20T20:39:36.324Z,89.67
2023-01-20T20:42:06.920Z,89.71
2023-01-20T20:44:37.698Z,89.82
2023-01-20T20:47:08.154Z,89.89
2023-01-20T20:49:39.372Z,89.73
2023-01-20T20:52:09.936Z,89.73
2023-01-20T20:54:41.107Z,89.65
2023-01-20T20:57:12.026Z,89.69
2023-01-20T20:59:58.294Z,89.74
2023-01-20T21:02:30.076Z,89.91
2023-01-20T21:05:00.449Z,89.77
2023-01-20T21:07:31.045Z,89.79
2023-01-20T21:10:04.668Z,89.84
2023-01-20T21:12:35.015Z,89.95
2023-01-20T21:15:06.290Z,90.05
2023-01-20T21:17:36.757Z,90.00
2023-01-20T21:20:09.020Z,89.97
2023-01-20T21:22:39.658Z,89.88
2023-01-20T21:25:11.638Z,89.92
2023-01-20T21:27:42.267Z,90.06
2023-01-20T21:30:13.887Z,90.06
2023-01-20T21:32:44.408Z,90.16
2023-01-20T21:35:14.902Z,90.12
2023-01-20T21:37:45.320Z,90.15
2023-01-20T21:40:16.647Z,90.14
2023-01-20T21:42:47.168Z,90.03
2023-01-20T21:45:17.805Z,90.05
2023-01-20T21:47:48.267Z,90.15
2023-01-20T21:50:36.806Z,90.22
2023-01-20T21:53:07.244Z,90.24
2023-01-20T21:55:39.153Z,90.22
2023-01-20T21:58:10.365Z,90.18
2023-01-20T22:00:40.912Z,90.28
2023-01-20T22:03:11.513Z,90.37
2023-01-20T22:05:42.035Z,90.55
2023-01-20T22:08:12.361Z,90.62
2023-01-20T22:10:42.665Z,90.70
2023-01-20T22:13:13.090Z,90.80
2023-01-20T22:15:43.465Z,90.95
2023-01-20T22:18:13.841Z,91.09
2023-01-20T22:20:44.171Z,91.14
2023-01-20T22:23:14.699Z,91.15
2023-01-20T22:25:45.073Z,91.16
2023-01-20T22:28:15.386Z,91.21
2023-01-20T22:30:45.721Z,91.45
2023-01-20T22:33:16.105Z,91.39
2023-01-20T22:35:46.470Z,91.41
2023-01-20T22:38:16.948Z,91.37
2023-01-20T22:40:47.554Z,91.40
2023-01-20T22:43:17.930Z,91.49
2023-01-20T22:45:48.748Z,91.52
2023-01-20T22:48:19.200Z,91.52
2023-01-20T22:50:49.583Z,91.41
2023-01-20T22:53:20.221Z,91.46
2023-01-20T22:56:00.641Z,91.53
2023-01-20T22:58:31.608Z,91.51
2023-01-20T23:01:02.521Z,91.51
2023-01-20T23:03:33.084Z,91.46
2023-01-20T23:06:03.648Z,91.42
2023-01-20T23:08:34.527Z,91.54
2023-01-20T23:11:08.473Z,91.52
2023-01-20T23:13:39.530Z,91.60
2023-01-20T23:16:11.618Z,91.67
2023-01-20T23:18:41.960Z,91.57
2023-01-20T23:21:12.384Z,91.59
2023-01-20T23:23:43.005Z,91.75
2023-01-20T23:26:15.998Z,91.68
2023-01-20T23:28:45.034Z,91.64
2023-01-20T23:31:16.873Z,91.72
2023-01-20T23:33:47.854Z,91.74
2023-01-20T23:36:21.570Z,91.85
2023-01-20T23:38:53.449Z,91.93
2023-01-20T23:41:24.026Z,91.99
2023-01-20T23:43:54.519Z,91.89
2023-01-20T23:46:24.831Z,91.91
2023-01-20T23:48:55.193Z,91.92
2023-01-20T23:51:25.584Z,91.89
2023-01-20T23:53:56.766Z,91.89
2023-01-20T23:56:27.944Z,91.89
2023-01-20T23:58:58.287Z,91.87
